Time;durP1;ratioP1;P1;durP2;ratioP2;P2;SDS_P1;SDS_P2;PMS_P1;PMS_P2;Temp;Humidity;BMP_temperature;BMP_pressure;BME280_temperature;BME280_humidity;BME280_pressure;Samples;Min_cycle;Max_cycle;Signal;HPM_P1;HPM_P2
2022/08/24 00:00:09;;;;;;;;;;;;;;;16.45;52.51;98129.78;6217947;28;20071;-63
2022/08/24 00:03:12;;;;;;;;;;;;;;;16.34;53.34;98127.03;6218972;28;19932;-63
2022/08/24 00:06:19;;;;;;;;;;;;;;;16.31;52.26;98127.22;6212193;28;19925;-62
2022/08/24 00:09:21;;;;;;;;;;;;;;;16.27;52.16;98136.34;6211739;28;19926;-63
2022/08/24 00:12:22;;;;;;;;;;;;;;;16.28;52.35;98136.25;6218109;28;20094;-63
2022/08/24 00:15:23;;;;;;;;;;;;;;;16.35;52.42;98134.03;6217712;28;20012;-62
2022/08/24 00:18:27;;;;;;;;;;;;;;;16.26;52.79;98132.00;6211344;28;19926;-63
2022/08/24 00:21:28;;;;;;;;;;;;;;;16.08;53.76;98132.28;6218494;28;19925;-62
2022/08/24 00:24:32;;;;;;;;;;;;;;;16.00;54.12;98123.13;6218885;28;19927;-62
2022/08/24 00:27:35;;;;;;;;;;;;;;;15.95;53.65;98126.09;6215949;28;20055;-63
2022/08/24 00:30:39;;;;;;;;;;;;;;;15.94;54.50;98124.41;6216376;28;20314;-62
2022/08/24 00:33:43;;;;;;;;;;;;;;;15.94;52.71;98121.75;6217705;28;19925;-62
2022/08/24 00:36:46;;;;;;;;;;;;;;;16.07;53.28;98125.25;6218068;28;19925;-62
2022/08/24 00:39:51;;;;;;;;;;;;;;;16.10;53.67;98125.06;6220171;28;19926;-62
2022/08/24 00:42:54;;;;;;;;;;;;;;;15.87;54.59;98117.78;6218479;28;20067;-62
2022/08/24 00:46:09;;;;;;;;;;;;;;;15.79;54.53;98123.59;6219331;28;20403;-63
2022/08/24 00:49:13;;;;;;;;;;;;;;;15.75;54.05;98119.44;6222261;28;20091;-63
2022/08/24 00:52:20;;;;;;;;;;;;;;;15.71;54.00;98121.47;6222870;28;19941;-64
2022/08/24 00:55:25;;;;;;;;;;;;;;;15.71;53.15;98128.59;6223273;28;19932;-63
2022/08/24 00:58:35;;;;;;;;;;;;;;;15.71;53.49;98126.78;6217594;28;20027;-63
2022/08/24 01:01:36;;;;;;;;;;;;;;;15.70;53.58;98125.06;6216946;28;20302;-62
2022/08/24 01:04:44;;;;;;;;;;;;;;;15.56;54.12;98127.72;6215743;28;19925;-63
2022/08/24 01:07:49;;;;;;;;;;;;;;;15.49;54.21;98123.78;6222843;28;19926;-64
2022/08/24 01:11:06;;;;;;;;;;;;;;;15.46;54.40;98124.00;6222481;28;20317;-63
2022/08/24 01:14:07;;;;;;;;;;;;;;;15.47;55.21;98125.69;6220560;28;20059;-63
2022/08/24 01:20:28;;;;;;;;;;;;;;;15.55;53.70;98128.69;6216277;28;19922;-63
2022/08/24 01:23:40;;;;;;;;;;;;;;;15.63;53.14;98126.38;6220881;28;20315;-64
2022/08/24 01:26:46;;;;;;;;;;;;;;;15.60;53.61;98129.25;6215201;28;20055;-63
2022/08/24 01:29:47;;;;;;;;;;;;;;;15.50;53.99;98136.09;6219794;28;20462;-63
2022/08/24 01:32:56;;;;;;;;;;;;;;;15.50;53.73;98136.09;6221004;28;19926;-62
2022/08/24 01:36:00;;;;;;;;;;;;;;;15.53;53.55;98133.22;6215882;28;20405;-63
2022/08/24 01:39:10;;;;;;;;;;;;;;;15.59;53.46;98130.19;6221024;28;20011;-63
2022/08/24 01:42:13;;;;;;;;;;;;;;;15.64;53.17;98133.38;6221854;28;20418;-63
2022/08/24 01:45:17;;;;;;;;;;;;;;;15.72;52.98;98138.22;6214897;28;20028;-62
2022/08/24 01:48:21;;;;;;;;;;;;;;;15.84;52.76;98133.91;6215162;28;20484;-63
2022/08/24 01:51:22;;;;;;;;;;;;;;;15.91;52.98;98151.16;6219766;28;19932;-63
2022/08/24 01:54:24;;;;;;;;;;;;;;;15.90;53.48;98149.44;6221283;28;19931;-62
2022/08/24 01:57:27;;;;;;;;;;;;;;;15.90;54.18;98150.28;6222021;28;19926;-63
2022/08/24 02:00:31;;;;;;;;;;;;;;;16.00;53.40;98147.88;6221068;28;19984;-62
2022/08/24 02:03:34;;;;;;;;;;;;;;;16.13;52.78;98151.41;6221591;28;19932;-63
2022/08/24 02:06:40;;;;;;;;;;;;;;;16.25;52.33;98154.19;6221541;28;19925;-64
2022/08/24 02:09:41;;;;;;;;;;;;;;;16.33;52.60;98151.84;6218601;28;19929;-62
2022/08/24 02:12:45;;;;;;;;;;;;;;;16.66;52.64;98153.19;6220531;28;19926;-64
2022/08/24 02:15:47;;;;;;;;;;;;;;;16.70;52.68;98152.88;6219081;28;19941;-63
2022/08/24 02:18:48;;;;;;;;;;;;;;;16.68;52.53;98144.13;6221153;28;20035;-62
2022/08/24 02:21:50;;;;;;;;;;;;;;;16.75;52.37;98155.19;6221853;28;19983;-66
2022/08/24 02:24:56;;;;;;;;;;;;;;;16.90;52.03;98159.47;6219717;28;19925;-63
2022/08/24 02:28:00;;;;;;;;;;;;;;;17.10;51.64;98157.19;6220413;28;19972;-61
2022/08/24 02:31:04;;;;;;;;;;;;;;;17.25;50.91;98156.97;6219108;28;19926;-62
2022/08/24 02:34:05;;;;;;;;;;;;;;;17.42;50.80;98153.09;6220726;28;19925;-64
2022/08/24 02:37:06;;;;;;;;;;;;;;;17.73;50.66;98156.19;6220762;28;20048;-65
2022/08/24 02:40:11;;;;;;;;;;;;;;;18.16;49.45;98159.19;6219415;28;19925;-67
2022/08/24 02:43:17;;;;;;;;;;;;;;;18.11;49.45;98160.50;6216218;28;19929;-68
2022/08/24 02:46:21;;;;;;;;;;;;;;;18.10;49.52;98158.81;6218509;28;20622;-62
2022/08/24 02:49:22;;;;;;;;;;;;;;;18.16;49.10;98158.34;6222906;28;19931;-63
2022/08/24 02:52:28;;;;;;;;;;;;;;;18.28;49.04;98165.41;6222682;28;19921;-62
2022/08/24 02:55:33;;;;;;;;;;;;;;;18.47;48.84;98153.34;6222466;28;20391;-63
2022/08/24 02:58:37;;;;;;;;;;;;;;;18.67;48.57;98152.66;6221399;28;19922;-62
2022/08/24 03:01:40;;;;;;;;;;;;;;;18.84;48.20;98165.56;6215565;28;19930;-63
2022/08/24 03:04:41;;;;;;;;;;;;;;;18.81;47.83;98165.81;6216465;28;19932;-63
2022/08/24 03:07:45;;;;;;;;;;;;;;;18.89;47.69;98156.38;6220859;28;19947;-63
2022/08/24 03:10:47;;;;;;;;;;;;;;;19.03;47.63;98158.81;6218797;28;19925;-62
2022/08/24 03:13:48;;;;;;;;;;;;;;;19.16;47.19;98159.50;6221929;28;20056;-62
2022/08/24 03:16:49;;;;;;;;;;;;;;;19.49;46.33;98160.47;6215690;28;19926;-62
2022/08/24 03:19:52;;;;;;;;;;;;;;;19.77;45.75;98160.91;6220011;28;19987;-63
2022/08/24 03:22:53;;;;;;;;;;;;;;;19.66;45.98;98162.63;6221748;28;19925;-63
2022/08/24 03:25:55;;;;;;;;;;;;;;;19.67;46.11;98163.47;6221515;28;20391;-67
2022/08/24 03:28:59;;;;;;;;;;;;;;;19.76;45.79;98162.75;6221595;28;19925;-66
2022/08/24 03:32:05;;;;;;;;;;;;;;;19.88;45.65;98160.88;6214541;28;20341;-64
2022/08/24 03:35:10;;;;;;;;;;;;;;;20.02;45.69;98168.59;6220691;28;19926;-75
2022/08/24 03:38:14;;;;;;;;;;;;;;;20.28;45.08;98158.41;6221612;28;19984;-68
2022/08/24 03:41:19;;;;;;;;;;;;;;;20.63;43.88;98158.09;6220716;28;19926;-68
2022/08/24 03:44:26;;;;;;;;;;;;;;;20.55;44.05;98165.97;6221601;28;19929;-68
2022/08/24 03:47:29;;;;;;;;;;;;;;;20.58;43.97;98164.81;6221644;28;20417;-68
2022/08/24 03:50:30;;;;;;;;;;;;;;;20.69;43.76;98161.25;6218688;28;20084;-68
2022/08/24 03:53:34;;;;;;;;;;;;;;;20.79;43.50;98160.31;6235811;28;19941;-67
2022/08/24 03:56:36;;;;;;;;;;;;;;;20.94;43.11;98160.81;6221168;28;19925;-67
2022/08/24 03:59:37;;;;;;;;;;;;;;;21.20;42.53;98155.03;6221121;28;19925;-68
2022/08/24 04:02:43;;;;;;;;;;;;;;;21.65;40.79;98154.63;6221432;28;19926;-68
2022/08/24 04:05:47;;;;;;;;;;;;;;;21.49;41.38;98152.50;6220994;28;20375;-67
2022/08/24 04:08:51;;;;;;;;;;;;;;;21.58;41.30;98161.53;6210261;28;20338;-69
2022/08/24 04:11:55;;;;;;;;;;;;;;;21.67;41.10;98160.69;6221116;28;19925;-68
2022/08/24 04:15:02;;;;;;;;;;;;;;;21.80;40.70;98163.97;6221397;28;19929;-69
2022/08/24 04:18:07;;;;;;;;;;;;;;;22.15;39.20;98159.91;6220482;28;19922;-67
2022/08/24 04:21:15;;;;;;;;;;;;;;;22.35;38.75;98158.94;6216797;28;19925;-68
2022/08/24 04:24:16;;;;;;;;;;;;;;;22.34;38.95;98161.78;6215949;28;19925;-68
2022/08/24 04:27:17;;;;;;;;;;;;;;;22.38;38.87;98155.97;6220602;28;19926;-68
2022/08/24 04:30:19;;;;;;;;;;;;;;;22.50;38.89;98155.81;6218839;28;19925;-68
2022/08/24 04:33:25;;;;;;;;;;;;;;;22.63;38.55;98159.91;6214965;28;19925;-67
2022/08/24 04:36:26;;;;;;;;;;;;;;;22.96;37.52;98154.22;6216455;28;21630;-67
2022/08/24 04:39:32;;;;;;;;;;;;;;;23.29;36.34;98145.56;6218372;28;20016;-68
2022/08/24 04:42:38;;;;;;;;;;;;;;;23.23;36.83;98153.41;6216472;28;19925;-69
2022/08/24 04:45:41;;;;;;;;;;;;;;;23.27;37.07;98147.59;6216122;28;19926;-68
2022/08/24 04:48:43;;;;;;;;;;;;;;;23.47;36.54;98150.19;6218212;28;19925;-67
2022/08/24 04:51:47;;;;;;;;;;;;;;;23.65;36.25;98152.91;6217042;28;19929;-67
2022/08/24 04:54:49;;;;;;;;;;;;;;;23.98;34.98;98151.44;6217305;28;20022;-69
2022/08/24 04:57:50;;;;;;;;;;;;;;;24.09;34.57;98148.53;6214394;28;20307;-68
2022/08/24 05:00:54;;;;;;;;;;;;;;;23.96;35.35;98145.38;6211986;28;19957;-67
2022/08/24 05:03:58;;;;;;;;;;;;;;;24.11;35.24;98153.72;6217944;28;19925;-69
2022/08/24 05:07:02;;;;;;;;;;;;;;;24.34;34.67;98154.94;6219825;28;19926;-68
2022/08/24 05:10:05;;;;;;;;;;;;;;;24.71;33.70;98142.31;6218748;28;19926;-68
2022/08/24 05:13:07;;;;;;;;;;;;;;;24.99;33.15;98149.22;6220434;28;19927;-69
2022/08/24 05:16:12;;;;;;;;;;;;;;;25.57;32.95;98152.22;6206239;28;19929;-68
2022/08/24 05:19:16;;;;;;;;;;;;;;;29.24;28.50;98157.38;6212219;28;19925;-69
2022/08/24 05:22:17;;;;;;;;;;;;;;;33.79;24.48;98174.97;6216488;28;20509;-69
2022/08/24 05:25:22;;;;;;;;;;;;;;;37.61;20.35;98175.63;6214244;28;19932;-69
2022/08/24 05:28:23;;;;;;;;;;;;;;;40.38;18.36;98176.28;6218913;28;20048;-69
2022/08/24 05:31:26;;;;;;;;;;;;;;;42.78;17.67;98180.41;6221557;28;19926;-69
2022/08/24 05:34:30;;;;;;;;;;;;;;;44.92;16.01;98177.91;6221599;28;19936;-69
2022/08/24 05:37:36;;;;;;;;;;;;;;;46.72;14.59;98182.97;6224220;28;19933;-70
2022/08/24 05:40:41;;;;;;;;;;;;;;;48.16;13.95;98188.66;6224094;28;19947;-70
2022/08/24 05:43:43;;;;;;;;;;;;;;;49.18;12.08;98175.84;6241914;28;20023;-71
2022/08/24 05:46:46;;;;;;;;;;;;;;;49.65;11.33;98184.63;6249059;28;19929;-74
2022/08/24 05:49:50;;;;;;;;;;;;;;;50.38;11.53;98177.75;6235174;28;20410;-70
2022/08/24 05:52:54;;;;;;;;;;;;;;;51.09;10.99;98174.56;6224370;28;19987;-70
2022/08/24 05:56:01;;;;;;;;;;;;;;;51.96;10.84;98174.19;6224358;28;20398;-70
2022/08/24 05:59:02;;;;;;;;;;;;;;;53.02;10.28;98167.41;6224205;28;19926;-70
2022/08/24 06:02:06;;;;;;;;;;;;;;;54.00;9.54;98171.16;6224116;28;20458;-70
2022/08/24 06:05:07;;;;;;;;;;;;;;;54.36;8.83;98168.59;6238896;28;20020;-69
2022/08/24 06:08:11;;;;;;;;;;;;;;;54.89;8.12;98174.97;6201683;28;19926;-70
2022/08/24 06:11:30;;;;;;;;;;;;;;;55.03;7.61;98164.09;6198873;28;19926;-71
2022/08/24 06:14:33;;;;;;;;;;;;;;;55.03;7.88;98171.75;6198582;28;19937;-70
2022/08/24 06:17:35;;;;;;;;;;;;;;;55.71;7.38;98162.22;6199125;28;20080;-70
2022/08/24 06:20:40;;;;;;;;;;;;;;;56.05;7.92;98154.97;6217173;28;20016;-75
2022/08/24 06:23:45;;;;;;;;;;;;;;;56.13;6.84;98150.31;6221071;28;19925;-72
2022/08/24 06:30:10;;;;;;;;;;;;;;;56.79;6.24;98154.91;6220355;28;20402;-69
2022/08/24 06:33:12;;;;;;;;;;;;;;;56.93;5.83;98148.75;6222553;28;19925;-68
2022/08/24 06:36:14;;;;;;;;;;;;;;;57.39;5.75;98139.44;6217652;28;19925;-67
2022/08/24 06:39:19;;;;;;;;;;;;;;;56.68;5.74;98137.78;6214248;28;19932;-68
2022/08/24 06:42:20;;;;;;;;;;;;;;;56.18;5.29;98130.25;6215120;28;19929;-66
2022/08/24 06:45:22;;;;;;;;;;;;;;;56.00;5.94;98136.31;6221012;28;19926;-67
2022/08/24 06:48:24;;;;;;;;;;;;;;;56.76;5.70;98121.75;6222183;28;20341;-67
2022/08/24 06:51:28;;;;;;;;;;;;;;;57.03;4.93;98124.69;6222487;28;19925;-68
2022/08/24 06:54:32;;;;;;;;;;;;;;;57.08;4.67;98127.22;6222415;28;19925;-67
2022/08/24 06:57:34;;;;;;;;;;;;;;;56.39;5.13;98122.22;6211950;28;19925;-66
2022/08/24 07:00:40;;;;;;;;;;;;;;;56.62;5.45;98116.63;6198067;28;20388;-67
2022/08/24 07:03:45;;;;;;;;;;;;;;;57.83;5.05;98121.97;6198005;28;20530;-67
2022/08/24 07:06:50;;;;;;;;;;;;;;;58.49;4.32;98126.09;6197677;28;19926;-67
2022/08/24 07:09:51;;;;;;;;;;;;;;;58.50;4.61;98124.91;6198929;28;20024;-67
2022/08/24 07:12:56;;;;;;;;;;;;;;;59.00;4.22;98131.13;6222443;28;19934;-67
2022/08/24 07:15:59;;;;;;;;;;;;;;;58.80;4.26;98119.16;6201885;28;19921;-67
2022/08/24 07:19:03;;;;;;;;;;;;;;;58.54;3.92;98116.44;6197822;28;19973;-67
2022/08/24 07:22:07;;;;;;;;;;;;;;;59.04;4.25;98117.00;6197719;28;20311;-68
2022/08/24 07:25:11;;;;;;;;;;;;;;;58.30;4.63;98106.44;6207573;28;19925;-67
2022/08/24 07:28:15;;;;;;;;;;;;;;;58.44;3.88;98112.31;6221848;28;19925;-67
2022/08/24 07:31:19;;;;;;;;;;;;;;;57.88;4.50;98107.50;6221043;28;19925;-66
2022/08/24 07:34:23;;;;;;;;;;;;;;;57.69;4.30;98100.72;6221899;28;20255;-67
2022/08/24 07:37:26;;;;;;;;;;;;;;;58.10;4.51;98100.94;6221792;28;19932;-67
2022/08/24 07:40:29;;;;;;;;;;;;;;;58.67;4.01;98101.63;6221425;28;19926;-67
2022/08/24 07:43:32;;;;;;;;;;;;;;;59.46;3.91;98099.53;6221395;28;20411;-67
2022/08/24 07:46:36;;;;;;;;;;;;;;;60.52;4.08;98106.19;6221831;28;19925;-68
2022/08/24 07:49:39;;;;;;;;;;;;;;;59.36;3.32;98097.41;6202893;28;20391;-66
2022/08/24 07:52:43;;;;;;;;;;;;;;;57.73;3.86;98089.44;6196935;28;19929;-66
2022/08/24 07:55:55;;;;;;;;;;;;;;;56.40;4.47;98087.13;6196946;28;20450;-68
2022/08/24 07:58:58;;;;;;;;;;;;;;;56.16;4.74;98085.41;6197043;28;19926;-67
2022/08/24 08:02:05;;;;;;;;;;;;;;;57.29;4.58;98075.84;6197108;28;19926;-67
2022/08/24 08:05:09;;;;;;;;;;;;;;;58.17;4.27;98086.03;6197499;28;19926;-67
2022/08/24 08:08:13;;;;;;;;;;;;;;;58.71;4.45;98084.66;6196755;28;19925;-67
2022/08/24 08:11:16;;;;;;;;;;;;;;;59.61;3.94;98085.44;6196504;28;20490;-67
2022/08/24 08:14:17;;;;;;;;;;;;;;;60.27;3.87;98091.06;6229953;28;20377;-67
2022/08/24 08:17:19;;;;;;;;;;;;;;;60.03;2.98;98079.19;6221005;28;19984;-67
2022/08/24 08:20:20;;;;;;;;;;;;;;;59.64;3.55;98081.81;6221218;28;20014;-66
2022/08/24 08:26:49;;;;;;;;;;;;;;;59.80;3.75;98075.78;6219777;28;19971;-66
2022/08/24 08:29:52;;;;;;;;;;;;;;;59.63;3.68;98068.81;6220739;28;20049;-66
2022/08/24 08:32:58;;;;;;;;;;;;;;;60.06;2.88;98069.03;6235748;28;20020;-67
2022/08/24 08:36:04;;;;;;;;;;;;;;;60.87;3.47;98061.97;6221000;28;19925;-67
2022/08/24 08:39:08;;;;;;;;;;;;;;;60.06;3.31;98063.38;6220044;28;19926;-67
2022/08/24 08:42:22;;;;;;;;;;;;;;;59.28;3.77;98047.47;6220945;28;20340;-67
2022/08/24 08:45:52;;;;;;;;;;;;;;;58.99;3.97;98052.09;6237925;28;19925;-66
2022/08/24 08:49:04;;;;;;;;;;;;;;;59.29;3.89;98047.09;6230255;28;20008;-67
2022/08/24 08:52:11;;;;;;;;;;;;;;;58.87;3.73;98036.19;6245423;28;20009;-67
2022/08/24 08:55:26;;;;;;;;;;;;;;;57.70;3.63;98042.91;6245138;28;19925;-67
2022/08/24 08:58:50;;;;;;;;;;;;;;;56.39;4.35;98030.97;6196225;28;19925;-67
2022/08/24 09:01:59;;;;;;;;;;;;;;;56.17;4.18;98024.06;6198434;28;19948;-66
2022/08/24 09:05:14;;;;;;;;;;;;;;;56.12;4.52;98024.38;6200567;28;19978;-66
2022/08/24 09:08:18;;;;;;;;;;;;;;;55.55;3.83;98019.13;6200974;28;19926;-67
2022/08/24 09:11:48;;;;;;;;;;;;;;;55.60;3.69;98010.38;6201072;28;19925;-67
2022/08/24 09:15:01;;;;;;;;;;;;;;;54.93;4.43;98003.91;6213647;28;19926;-67
2022/08/24 09:18:21;;;;;;;;;;;;;;;54.12;4.60;97992.88;6225051;28;19921;-67
2022/08/24 09:21:41;;;;;;;;;;;;;;;53.59;4.91;97992.91;6224755;28;19925;-67
2022/08/24 09:24:52;;;;;;;;;;;;;;;52.93;5.08;97979.94;6239421;28;19975;-67
2022/08/24 09:28:12;;;;;;;;;;;;;;;53.77;4.90;97993.47;6223700;28;19936;-67
2022/08/24 09:31:29;;;;;;;;;;;;;;;55.32;4.42;97982.34;6210448;28;19926;-67
2022/08/24 09:34:36;;;;;;;;;;;;;;;55.11;4.03;97993.88;6200645;28;19925;-67
2022/08/24 09:37:51;;;;;;;;;;;;;;;54.97;4.46;97985.09;6200952;28;19933;-66
2022/08/24 09:41:08;;;;;;;;;;;;;;;55.39;3.97;97990.13;6200654;28;19988;-67
2022/08/24 09:44:18;;;;;;;;;;;;;;;54.95;4.57;97993.06;6199091;28;19937;-68
2022/08/24 09:47:30;;;;;;;;;;;;;;;54.86;4.48;97975.53;6201086;28;20031;-67
2022/08/24 09:50:49;;;;;;;;;;;;;;;54.75;4.42;97980.09;6200506;28;20404;-66
2022/08/24 09:53:53;;;;;;;;;;;;;;;55.33;4.33;97977.50;6199990;28;20019;-67
2022/08/24 09:57:07;;;;;;;;;;;;;;;56.05;3.74;97968.56;6214820;28;20403;-67
2022/08/24 10:00:10;;;;;;;;;;;;;;;56.21;3.88;97974.13;6199599;28;19925;-68
2022/08/24 10:03:14;;;;;;;;;;;;;;;56.08;3.38;97972.66;6200063;28;19977;-67
2022/08/24 10:06:30;;;;;;;;;;;;;;;55.77;4.03;97965.94;6200291;28;19926;-67
2022/08/24 10:09:51;;;;;;;;;;;;;;;55.12;4.28;97963.69;6213967;28;19925;-67
2022/08/24 10:13:11;;;;;;;;;;;;;;;55.01;4.32;97966.28;6211904;28;20022;-67
2022/08/24 10:16:24;;;;;;;;;;;;;;;54.68;4.22;97956.19;6223772;28;20394;-66
2022/08/24 10:19:43;;;;;;;;;;;;;;;54.56;3.96;97955.41;6238147;28;20343;-67
2022/08/24 10:22:48;;;;;;;;;;;;;;;54.27;4.14;97955.47;6205119;28;19932;-66
2022/08/24 10:25:50;;;;;;;;;;;;;;;54.36;4.04;97946.03;6197679;28;19926;-67
2022/08/24 10:29:03;;;;;;;;;;;;;;;53.93;4.05;97945.66;6199009;28;19965;-67
2022/08/24 10:32:17;;;;;;;;;;;;;;;53.65;4.32;97939.19;6199577;28;19929;-68
2022/08/24 10:35:26;;;;;;;;;;;;;;;53.65;4.74;97940.00;6198840;28;19926;-67
2022/08/24 10:41:55;;;;;;;;;;;;;;;52.92;5.00;97936.16;6198650;28;19996;-68
2022/08/24 10:45:05;;;;;;;;;;;;;;;52.42;5.07;97934.47;6199036;28;19992;-67
2022/08/24 10:48:12;;;;;;;;;;;;;;;51.88;5.37;97934.53;6199171;28;20407;-67
2022/08/24 10:51:24;;;;;;;;;;;;;;;51.19;5.71;97933.91;6198957;28;19921;-68
2022/08/24 10:54:25;;;;;;;;;;;;;;;50.91;5.59;97932.75;6199258;28;19944;-67
2022/08/24 10:57:27;;;;;;;;;;;;;;;50.14;5.72;97921.50;6222458;28;19976;-67
2022/08/24 11:00:31;;;;;;;;;;;;;;;49.00;6.49;97923.41;6237763;28;19936;-67
2022/08/24 11:03:46;;;;;;;;;;;;;;;48.01;6.94;97919.94;6222316;28;20394;-67
2022/08/24 11:07:02;;;;;;;;;;;;;;;47.86;6.67;97915.59;6222699;28;20346;-67
2022/08/24 11:10:05;;;;;;;;;;;;;;;47.41;7.19;97917.53;6222533;28;19932;-68
2022/08/24 11:13:32;;;;;;;;;;;;;;;47.01;7.19;97915.28;6221076;28;20016;-66
2022/08/24 11:16:40;;;;;;;;;;;;;;;47.39;7.05;97919.75;6220797;28;19926;-67
2022/08/24 11:19:42;;;;;;;;;;;;;;;47.63;6.90;97917.53;6221856;28;19932;-67
2022/08/24 11:23:01;;;;;;;;;;;;;;;47.83;6.77;97912.63;6222295;28;19925;-67
2022/08/24 11:26:18;;;;;;;;;;;;;;;47.65;6.81;97912.47;6221055;28;20204;-67
2022/08/24 11:29:22;;;;;;;;;;;;;;;47.20;7.26;97915.19;6220851;28;20012;-67
2022/08/24 11:32:28;;;;;;;;;;;;;;;46.39;7.21;97909.31;6221873;28;20298;-67
2022/08/24 11:35:32;;;;;;;;;;;;;;;45.20;7.71;97905.94;6222335;28;19952;-67
2022/08/24 11:38:36;;;;;;;;;;;;;;;44.84;7.76;97909.16;6221954;28;20348;-68
2022/08/24 11:41:49;;;;;;;;;;;;;;;44.84;7.57;97909.16;6221926;28;19925;-67
2022/08/24 11:44:58;;;;;;;;;;;;;;;44.33;8.11;97904.16;6221585;28;19925;-67
2022/08/24 11:48:18;;;;;;;;;;;;;;;44.44;7.98;97905.72;6220792;28;20295;-67
2022/08/24 11:51:30;;;;;;;;;;;;;;;43.96;7.96;97905.66;6221564;28;19925;-67
2022/08/24 11:54:42;;;;;;;;;;;;;;;42.89;8.45;97898.00;6221466;28;20280;-68
2022/08/24 11:57:51;;;;;;;;;;;;;;;41.88;8.96;97897.91;6221551;28;20391;-67
2022/08/24 12:01:07;;;;;;;;;;;;;;;40.89;9.39;97895.22;6221291;28;19929;-68
2022/08/24 12:04:27;;;;;;;;;;;;;;;40.28;9.76;97881.13;6220664;28;19932;-67
2022/08/24 12:07:43;;;;;;;;;;;;;;;39.55;10.33;97887.16;6221035;28;19929;-67
2022/08/24 12:10:56;;;;;;;;;;;;;;;39.11;10.35;97879.00;6221530;28;19988;-67
2022/08/24 12:14:07;;;;;;;;;;;;;;;38.82;10.40;97879.19;6220817;28;20421;-67
2022/08/24 12:17:13;;;;;;;;;;;;;;;38.60;10.78;97878.38;6221723;28;19925;-67
2022/08/24 12:20:36;;;;;;;;;;;;;;;38.14;11.16;97877.72;6219538;28;20284;-68
2022/08/24 12:23:43;;;;;;;;;;;;;;;37.50;11.31;97873.38;6220365;28;19926;-67
2022/08/24 12:26:59;;;;;;;;;;;;;;;36.91;12.12;97878.28;6221052;28;19948;-68
2022/08/24 12:30:13;;;;;;;;;;;;;;;36.62;12.20;97881.00;6221217;28;20287;-67
2022/08/24 12:33:17;;;;;;;;;;;;;;;36.68;11.98;97873.69;6220847;28;19925;-67
2022/08/24 12:36:31;;;;;;;;;;;;;;;36.62;12.22;97878.25;6223680;28;20297;-67
2022/08/24 12:39:49;;;;;;;;;;;;;;;36.39;12.65;97875.53;6225905;28;20283;-67
2022/08/24 12:42:59;;;;;;;;;;;;;;;36.17;12.67;97878.88;6225493;28;20020;-67
2022/08/24 12:46:05;;;;;;;;;;;;;;;35.98;13.06;97866.34;6225891;28;19925;-68
2022/08/24 12:49:06;;;;;;;;;;;;;;;35.79;13.19;97873.03;6225858;28;19931;-68
2022/08/24 12:52:28;;;;;;;;;;;;;;;35.48;13.54;97875.81;6225069;28;20395;-67
2022/08/24 12:55:32;;;;;;;;;;;;;;;35.13;13.51;97877.63;6197552;28;19932;-67
2022/08/24 12:58:48;;;;;;;;;;;;;;;35.02;13.68;97865.56;6201528;28;19961;-68
2022/08/24 13:02:01;;;;;;;;;;;;;;;34.90;14.04;97873.69;6201058;28;19925;-67
2022/08/24 13:05:13;;;;;;;;;;;;;;;34.92;13.89;97876.19;6200933;28;19925;-67
2022/08/24 13:08:34;;;;;;;;;;;;;;;34.87;13.88;97877.72;6200656;28;20020;-68
2022/08/24 13:11:36;;;;;;;;;;;;;;;34.94;13.63;97872.19;6203796;28;20087;-67
2022/08/24 13:14:43;;;;;;;;;;;;;;;34.79;13.71;97872.59;6224632;28;20024;-67
2022/08/24 13:17:51;;;;;;;;;;;;;;;34.58;13.88;97867.59;6224680;28;19988;-68
2022/08/24 13:20:55;;;;;;;;;;;;;;;34.22;14.06;97863.75;6225080;28;19972;-67
2022/08/24 13:24:17;;;;;;;;;;;;;;;33.89;14.27;97864.91;6225082;28;19921;-68
2022/08/24 13:27:18;;;;;;;;;;;;;;;33.48;14.51;97860.81;6224074;28;20314;-68
2022/08/24 13:30:24;;;;;;;;;;;;;;;33.24;14.84;97867.09;6201621;28;19921;-68
2022/08/24 13:33:29;;;;;;;;;;;;;;;32.97;14.44;97877.28;6200447;28;19973;-68
2022/08/24 13:36:46;;;;;;;;;;;;;;;32.78;14.71;97863.56;6200356;28;19925;-68
2022/08/24 13:39:51;;;;;;;;;;;;;;;32.70;15.28;97873.84;6198665;28;19930;-68
2022/08/24 13:43:16;;;;;;;;;;;;;;;32.60;15.08;97872.44;6200310;28;19925;-67
2022/08/24 13:46:26;;;;;;;;;;;;;;;32.41;15.50;97874.16;6199029;28;19984;-68
2022/08/24 13:49:42;;;;;;;;;;;;;;;32.16;15.30;97871.31;6200178;28;20387;-67
2022/08/24 13:53:03;;;;;;;;;;;;;;;31.89;15.92;97880.53;6199790;28;19926;-67
2022/08/24 13:56:10;;;;;;;;;;;;;;;31.64;15.97;97878.44;6199590;28;20350;-67
2022/08/24 13:59:32;;;;;;;;;;;;;;;31.40;15.73;97876.34;6199956;28;19941;-68
2022/08/24 14:02:42;;;;;;;;;;;;;;;30.99;16.02;97877.28;6200333;28;19926;-68
2022/08/24 14:05:43;;;;;;;;;;;;;;;30.68;16.59;97877.78;6199312;28;20324;-67
2022/08/24 14:08:52;;;;;;;;;;;;;;;30.39;16.51;97875.13;6199431;28;19926;-68
2022/08/24 14:12:00;;;;;;;;;;;;;;;30.20;16.96;97873.97;6210813;28;19925;-68
2022/08/24 14:15:09;;;;;;;;;;;;;;;29.93;16.78;97870.25;6223572;28;19933;-68
2022/08/24 14:18:11;;;;;;;;;;;;;;;29.78;17.01;97866.81;6222461;28;20355;-68
2022/08/24 14:21:14;;;;;;;;;;;;;;;29.56;16.95;97867.84;6222466;28;19981;-68
2022/08/24 14:24:29;;;;;;;;;;;;;;;29.38;17.39;97871.84;6223425;28;19926;-68
2022/08/24 14:27:34;;;;;;;;;;;;;;;29.15;17.51;97873.94;6222815;28;19929;-67
2022/08/24 14:30:37;;;;;;;;;;;;;;;28.99;17.58;97867.72;6222765;28;19925;-68
2022/08/24 14:34:05;;;;;;;;;;;;;;;28.75;17.76;97876.19;6223204;28;19925;-69
2022/08/24 14:37:09;;;;;;;;;;;;;;;28.53;17.92;97873.41;6220852;28;20059;-67
2022/08/24 14:40:19;;;;;;;;;;;;;;;28.35;17.98;97864.81;6222926;28;19925;-68
2022/08/24 14:43:20;;;;;;;;;;;;;;;28.19;17.91;97882.09;6223600;28;19926;-68
2022/08/24 14:46:34;;;;;;;;;;;;;;;27.97;18.08;97870.34;6222972;28;19937;-68
2022/08/24 14:49:51;;;;;;;;;;;;;;;27.75;18.47;97875.59;6222411;28;20023;-68
2022/08/24 14:53:06;;;;;;;;;;;;;;;27.53;18.67;97876.47;6222007;28;19925;-68
2022/08/24 14:56:20;;;;;;;;;;;;;;;27.33;18.77;97873.44;6222368;28;20386;-67
2022/08/24 14:59:23;;;;;;;;;;;;;;;27.14;18.93;97873.88;6221930;28;19925;-68
2022/08/24 15:02:42;;;;;;;;;;;;;;;26.95;19.40;97865.25;6221823;28;20026;-69
2022/08/24 15:05:43;;;;;;;;;;;;;;;26.73;19.54;97872.28;6222509;28;19925;-68
2022/08/24 15:08:52;;;;;;;;;;;;;;;26.55;19.45;97869.00;6222094;28;20016;-68
2022/08/24 15:12:03;;;;;;;;;;;;;;;26.40;19.76;97874.28;6214174;28;20017;-68
2022/08/24 15:15:10;;;;;;;;;;;;;;;26.27;20.20;97880.25;6222483;28;19960;-68
2022/08/24 15:18:12;;;;;;;;;;;;;;;26.15;20.49;97877.06;6221905;28;19933;-68
2022/08/24 15:21:16;;;;;;;;;;;;;;;25.98;21.50;97880.81;6221782;28;19932;-68
2022/08/24 15:24:23;;;;;;;;;;;;;;;25.85;20.84;97872.44;6221849;28;19940;-68
2022/08/24 15:27:24;;;;;;;;;;;;;;;25.66;20.86;97871.75;6212959;28;19925;-69
2022/08/24 15:30:28;;;;;;;;;;;;;;;25.47;21.23;97883.72;6197405;28;19926;-69
2022/08/24 15:33:32;;;;;;;;;;;;;;;25.34;21.51;97883.41;6197042;28;19926;-68
2022/08/24 15:36:38;;;;;;;;;;;;;;;25.19;21.51;97885.06;6197280;28;19926;-70
2022/08/24 15:39:39;;;;;;;;;;;;;;;25.08;21.58;97881.66;6197290;28;19925;-68
2022/08/24 15:42:43;;;;;;;;;;;;;;;24.97;22.80;97882.00;6197442;28;19925;-69
2022/08/24 15:45:50;;;;;;;;;;;;;;;24.84;22.23;97887.84;6197473;28;20435;-69
2022/08/24 15:48:54;;;;;;;;;;;;;;;24.69;23.00;97894.03;6196086;28;19937;-68
2022/08/24 15:52:00;;;;;;;;;;;;;;;24.55;23.02;97896.34;6197027;28;19937;-68
2022/08/24 15:55:03;;;;;;;;;;;;;;;24.41;24.20;97902.31;6195032;28;19932;-69
2022/08/24 15:58:13;;;;;;;;;;;;;;;24.28;24.33;97896.53;6196519;28;19932;-68
2022/08/24 16:04:47;;;;;;;;;;;;;;;24.03;25.13;97904.44;6197510;28;20387;-68
2022/08/24 16:08:03;;;;;;;;;;;;;;;23.94;24.73;97897.34;6196735;28;20264;-68
2022/08/24 16:11:18;;;;;;;;;;;;;;;23.83;25.27;97906.50;6209676;28;19925;-69
2022/08/24 16:14:24;;;;;;;;;;;;;;;23.73;25.09;97909.31;6221223;28;19925;-68
2022/08/24 16:17:33;;;;;;;;;;;;;;;23.60;25.88;97900.78;6221210;28;20462;-68
2022/08/24 16:20:34;;;;;;;;;;;;;;;23.50;26.09;97908.09;6221512;28;19925;-68
2022/08/24 16:23:36;;;;;;;;;;;;;;;23.43;25.98;97901.66;6221152;28;19925;-68
2022/08/24 16:26:46;;;;;;;;;;;;;;;23.33;26.64;97900.91;6221059;28;19926;-69
2022/08/24 16:29:49;;;;;;;;;;;;;;;23.25;26.16;97902.53;6220300;28;19925;-69
2022/08/24 16:32:52;;;;;;;;;;;;;;;23.17;26.69;97907.81;6221126;28;19926;-68